sensor_id;sensor_type;location;lat;lon;timestamp;P1;durP1;ratioP1;P2;durP2;ratioP2
10232;SDS011;5161;48.174;11.756;2024-03-08T00:00:40;17.83;;;13.03;;
10232;SDS011;5161;48.174;11.756;2024-03-08T00:03:07;19.90;;;13.90;;
10232;SDS011;5161;48.174;11.756;2024-03-08T00:05:35;19.70;;;13.50;;
10232;SDS011;5161;48.174;11.756;2024-03-08T00:08:01;20.10;;;13.87;;
10232;SDS011;5161;48.174;11.756;2024-03-08T00:10:26;18.93;;;13.57;;
10232;SDS011;5161;48.174;11.756;2024-03-08T00:12:53;19.67;;;14.47;;
10232;SDS011;5161;48.174;11.756;2024-03-08T00:15:19;19.70;;;14.13;;
10232;SDS011;5161;48.174;11.756;2024-03-08T00:17:46;18.03;;;13.27;;
10232;SDS011;5161;48.174;11.756;2024-03-08T00:20:12;18.83;;;13.70;;
10232;SDS011;5161;48.174;11.756;2024-03-08T00:22:38;20.30;;;13.90;;
10232;SDS011;5161;48.174;11.756;2024-03-08T00:25:04;19.57;;;13.67;;
10232;SDS011;5161;48.174;11.756;2024-03-08T00:27:31;20.30;;;13.80;;
10232;SDS011;5161;48.174;11.756;2024-03-08T00:29:57;19.50;;;14.13;;
10232;SDS011;5161;48.174;11.756;2024-03-08T00:32:23;21.33;;;14.33;;
10232;SDS011;5161;48.174;11.756;2024-03-08T00:34:50;19.23;;;14.60;;
10232;SDS011;5161;48.174;11.756;2024-03-08T00:37:19;18.57;;;13.53;;
10232;SDS011;5161;48.174;11.756;2024-03-08T00:39:45;18.40;;;13.83;;
10232;SDS011;5161;48.174;11.756;2024-03-08T00:42:10;20.23;;;14.37;;
10232;SDS011;5161;48.174;11.756;2024-03-08T00:44:36;19.63;;;14.13;;
10232;SDS011;5161;48.174;11.756;2024-03-08T00:47:02;21.10;;;14.77;;
10232;SDS011;5161;48.174;11.756;2024-03-08T00:49:29;19.63;;;13.77;;
10232;SDS011;5161;48.174;11.756;2024-03-08T00:51:55;18.30;;;13.77;;
10232;SDS011;5161;48.174;11.756;2024-03-08T00:54:21;19.57;;;13.90;;
10232;SDS011;5161;48.174;11.756;2024-03-08T00:56:46;23.47;;;15.13;;
10232;SDS011;5161;48.174;11.756;2024-03-08T00:59:12;20.43;;;14.50;;
10232;SDS011;5161;48.174;11.756;2024-03-08T01:01:39;20.80;;;14.47;;
10232;SDS011;5161;48.174;11.756;2024-03-08T01:04:05;21.33;;;14.60;;
10232;SDS011;5161;48.174;11.756;2024-03-08T01:06:30;20.50;;;14.60;;
10232;SDS011;5161;48.174;11.756;2024-03-08T01:08:56;18.57;;;14.00;;
10232;SDS011;5161;48.174;11.756;2024-03-08T01:11:22;18.90;;;14.13;;
10232;SDS011;5161;48.174;11.756;2024-03-08T01:13:48;19.73;;;14.33;;
10232;SDS011;5161;48.174;11.756;2024-03-08T01:16:15;19.23;;;14.43;;
10232;SDS011;5161;48.174;11.756;2024-03-08T01:18:42;19.43;;;14.13;;
10232;SDS011;5161;48.174;11.756;2024-03-08T01:21:08;21.83;;;14.83;;
10232;SDS011;5161;48.174;11.756;2024-03-08T01:23:33;21.03;;;15.13;;
10232;SDS011;5161;48.174;11.756;2024-03-08T01:25:59;19.77;;;14.63;;
10232;SDS011;5161;48.174;11.756;2024-03-08T01:28:27;21.80;;;13.83;;
10232;SDS011;5161;48.174;11.756;2024-03-08T01:30:53;20.63;;;14.70;;
10232;SDS011;5161;48.174;11.756;2024-03-08T01:33:22;20.23;;;14.80;;
10232;SDS011;5161;48.174;11.756;2024-03-08T01:35:50;20.80;;;14.77;;
10232;SDS011;5161;48.174;11.756;2024-03-08T01:38:19;19.40;;;13.47;;
10232;SDS011;5161;48.174;11.756;2024-03-08T01:40:48;21.20;;;15.10;;
10232;SDS011;5161;48.174;11.756;2024-03-08T01:43:16;22.00;;;15.30;;
10232;SDS011;5161;48.174;11.756;2024-03-08T01:45:45;22.67;;;14.43;;
10232;SDS011;5161;48.174;11.756;2024-03-08T01:48:11;19.37;;;14.53;;
10232;SDS011;5161;48.174;11.756;2024-03-08T01:50:38;20.07;;;14.57;;
10232;SDS011;5161;48.174;11.756;2024-03-08T01:53:04;20.53;;;15.23;;
10232;SDS011;5161;48.174;11.756;2024-03-08T01:55:31;23.43;;;15.53;;
10232;SDS011;5161;48.174;11.756;2024-03-08T01:57:57;20.40;;;14.80;;
10232;SDS011;5161;48.174;11.756;2024-03-08T02:00:24;23.23;;;15.13;;
10232;SDS011;5161;48.174;11.756;2024-03-08T02:02:51;22.33;;;15.43;;
10232;SDS011;5161;48.174;11.756;2024-03-08T02:05:19;21.57;;;15.27;;
10232;SDS011;5161;48.174;11.756;2024-03-08T02:07:46;22.40;;;15.50;;
10232;SDS011;5161;48.174;11.756;2024-03-08T02:10:11;23.87;;;15.30;;
10232;SDS011;5161;48.174;11.756;2024-03-08T02:12:40;21.87;;;15.43;;
10232;SDS011;5161;48.174;11.756;2024-03-08T02:15:06;23.33;;;15.77;;
10232;SDS011;5161;48.174;11.756;2024-03-08T02:17:32;21.33;;;14.73;;
10232;SDS011;5161;48.174;11.756;2024-03-08T02:19:59;22.20;;;16.10;;
10232;SDS011;5161;48.174;11.756;2024-03-08T02:22:26;21.33;;;15.03;;
10232;SDS011;5161;48.174;11.756;2024-03-08T02:24:53;24.27;;;15.93;;
10232;SDS011;5161;48.174;11.756;2024-03-08T02:27:23;22.27;;;15.60;;
10232;SDS011;5161;48.174;11.756;2024-03-08T02:29:50;21.63;;;15.50;;
10232;SDS011;5161;48.174;11.756;2024-03-08T02:32:20;21.37;;;14.83;;
10232;SDS011;5161;48.174;11.756;2024-03-08T02:34:49;23.20;;;15.33;;
10232;SDS011;5161;48.174;11.756;2024-03-08T02:37:16;22.83;;;16.33;;
10232;SDS011;5161;48.174;11.756;2024-03-08T02:39:42;23.10;;;16.20;;
10232;SDS011;5161;48.174;11.756;2024-03-08T02:42:08;22.93;;;15.13;;
10232;SDS011;5161;48.174;11.756;2024-03-08T02:44:33;21.73;;;15.13;;
10232;SDS011;5161;48.174;11.756;2024-03-08T02:46:59;23.30;;;15.90;;
10232;SDS011;5161;48.174;11.756;2024-03-08T02:49:25;22.60;;;15.97;;
10232;SDS011;5161;48.174;11.756;2024-03-08T02:51:54;23.47;;;16.07;;
10232;SDS011;5161;48.174;11.756;2024-03-08T02:54:22;21.23;;;15.70;;
10232;SDS011;5161;48.174;11.756;2024-03-08T02:56:47;23.03;;;15.77;;
10232;SDS011;5161;48.174;11.756;2024-03-08T02:59:15;22.47;;;15.37;;
10232;SDS011;5161;48.174;11.756;2024-03-08T03:01:42;24.93;;;16.57;;
10232;SDS011;5161;48.174;11.756;2024-03-08T03:04:08;24.07;;;15.87;;
10232;SDS011;5161;48.174;11.756;2024-03-08T03:06:34;23.80;;;16.13;;
10232;SDS011;5161;48.174;11.756;2024-03-08T03:09:00;23.10;;;15.97;;
10232;SDS011;5161;48.174;11.756;2024-03-08T03:11:26;24.53;;;16.97;;
10232;SDS011;5161;48.174;11.756;2024-03-08T03:13:52;24.23;;;16.27;;
10232;SDS011;5161;48.174;11.756;2024-03-08T03:16:18;22.40;;;16.20;;
10232;SDS011;5161;48.174;11.756;2024-03-08T03:18:45;24.37;;;17.10;;
10232;SDS011;5161;48.174;11.756;2024-03-08T03:21:11;23.93;;;16.30;;
10232;SDS011;5161;48.174;11.756;2024-03-08T03:23:38;27.03;;;16.60;;
10232;SDS011;5161;48.174;11.756;2024-03-08T03:26:07;24.87;;;16.10;;
10232;SDS011;5161;48.174;11.756;2024-03-08T03:28:37;26.70;;;16.67;;
10232;SDS011;5161;48.174;11.756;2024-03-08T03:31:05;22.97;;;16.30;;
10232;SDS011;5161;48.174;11.756;2024-03-08T03:33:39;22.03;;;15.90;;
10232;SDS011;5161;48.174;11.756;2024-03-08T03:36:05;23.70;;;16.03;;
10232;SDS011;5161;48.174;11.756;2024-03-08T03:38:30;23.13;;;15.83;;
10232;SDS011;5161;48.174;11.756;2024-03-08T03:40:56;24.33;;;16.97;;
10232;SDS011;5161;48.174;11.756;2024-03-08T03:43:29;24.00;;;15.63;;
10232;SDS011;5161;48.174;11.756;2024-03-08T03:45:54;26.00;;;16.97;;
10232;SDS011;5161;48.174;11.756;2024-03-08T03:48:20;25.97;;;16.57;;
10232;SDS011;5161;48.174;11.756;2024-03-08T03:50:46;23.80;;;16.03;;
10232;SDS011;5161;48.174;11.756;2024-03-08T03:53:12;26.37;;;17.07;;
10232;SDS011;5161;48.174;11.756;2024-03-08T03:55:38;23.57;;;16.43;;
10232;SDS011;5161;48.174;11.756;2024-03-08T03:58:04;23.00;;;16.60;;
10232;SDS011;5161;48.174;11.756;2024-03-08T04:00:29;24.40;;;16.70;;
10232;SDS011;5161;48.174;11.756;2024-03-08T04:02:55;23.60;;;16.90;;
10232;SDS011;5161;48.174;11.756;2024-03-08T04:05:24;27.60;;;18.00;;
10232;SDS011;5161;48.174;11.756;2024-03-08T04:07:49;26.60;;;18.00;;
10232;SDS011;5161;48.174;11.756;2024-03-08T04:10:15;26.73;;;18.33;;
10232;SDS011;5161;48.174;11.756;2024-03-08T04:12:40;26.50;;;18.17;;
10232;SDS011;5161;48.174;11.756;2024-03-08T04:15:06;27.00;;;17.73;;
10232;SDS011;5161;48.174;11.756;2024-03-08T04:17:32;29.97;;;19.00;;
10232;SDS011;5161;48.174;11.756;2024-03-08T04:20:02;28.80;;;18.83;;
10232;SDS011;5161;48.174;11.756;2024-03-08T04:22:33;28.50;;;19.40;;
10232;SDS011;5161;48.174;11.756;2024-03-08T04:25:00;27.97;;;19.70;;
10232;SDS011;5161;48.174;11.756;2024-03-08T04:27:27;26.77;;;19.27;;
10232;SDS011;5161;48.174;11.756;2024-03-08T04:29:52;29.83;;;19.83;;
10232;SDS011;5161;48.174;11.756;2024-03-08T04:32:18;30.20;;;20.07;;
10232;SDS011;5161;48.174;11.756;2024-03-08T04:34:43;30.43;;;20.23;;
10232;SDS011;5161;48.174;11.756;2024-03-08T04:37:09;31.23;;;20.23;;
10232;SDS011;5161;48.174;11.756;2024-03-08T04:39:38;30.07;;;21.00;;
10232;SDS011;5161;48.174;11.756;2024-03-08T04:42:04;31.00;;;21.10;;
10232;SDS011;5161;48.174;11.756;2024-03-08T04:44:31;30.53;;;21.03;;
10232;SDS011;5161;48.174;11.756;2024-03-08T04:46:58;31.70;;;21.27;;
10232;SDS011;5161;48.174;11.756;2024-03-08T04:49:25;31.40;;;21.50;;
10232;SDS011;5161;48.174;11.756;2024-03-08T04:51:50;32.40;;;21.10;;
10232;SDS011;5161;48.174;11.756;2024-03-08T04:54:16;35.93;;;22.70;;
10232;SDS011;5161;48.174;11.756;2024-03-08T04:56:41;34.67;;;21.70;;
10232;SDS011;5161;48.174;11.756;2024-03-08T04:59:07;33.67;;;22.20;;
10232;SDS011;5161;48.174;11.756;2024-03-08T05:01:33;34.90;;;22.13;;
10232;SDS011;5161;48.174;11.756;2024-03-08T05:03:59;34.23;;;22.00;;
10232;SDS011;5161;48.174;11.756;2024-03-08T05:06:24;35.63;;;23.27;;
10232;SDS011;5161;48.174;11.756;2024-03-08T05:08:50;36.53;;;23.87;;
10232;SDS011;5161;48.174;11.756;2024-03-08T05:11:15;36.10;;;23.17;;
10232;SDS011;5161;48.174;11.756;2024-03-08T05:13:41;35.73;;;23.23;;
10232;SDS011;5161;48.174;11.756;2024-03-08T05:16:06;37.10;;;24.10;;
10232;SDS011;5161;48.174;11.756;2024-03-08T05:18:33;39.43;;;24.97;;
10232;SDS011;5161;48.174;11.756;2024-03-08T05:20:59;39.80;;;24.77;;
10232;SDS011;5161;48.174;11.756;2024-03-08T05:23:24;39.67;;;24.63;;
10232;SDS011;5161;48.174;11.756;2024-03-08T05:25:50;38.47;;;23.77;;
10232;SDS011;5161;48.174;11.756;2024-03-08T05:28:16;39.17;;;24.20;;
10232;SDS011;5161;48.174;11.756;2024-03-08T05:30:42;40.97;;;25.00;;
10232;SDS011;5161;48.174;11.756;2024-03-08T05:33:07;40.57;;;24.67;;
10232;SDS011;5161;48.174;11.756;2024-03-08T05:35:36;39.70;;;25.10;;
10232;SDS011;5161;48.174;11.756;2024-03-08T05:38:02;39.70;;;24.83;;
10232;SDS011;5161;48.174;11.756;2024-03-08T05:40:27;40.60;;;24.50;;
10232;SDS011;5161;48.174;11.756;2024-03-08T05:42:56;44.10;;;24.93;;
10232;SDS011;5161;48.174;11.756;2024-03-08T05:45:23;39.57;;;24.33;;
10232;SDS011;5161;48.174;11.756;2024-03-08T05:47:50;42.03;;;25.80;;
10232;SDS011;5161;48.174;11.756;2024-03-08T05:50:16;40.80;;;25.83;;
10232;SDS011;5161;48.174;11.756;2024-03-08T05:52:42;42.77;;;25.77;;
10232;SDS011;5161;48.174;11.756;2024-03-08T05:55:08;41.40;;;25.70;;
10232;SDS011;5161;48.174;11.756;2024-03-08T05:57:34;37.57;;;24.43;;
10232;SDS011;5161;48.174;11.756;2024-03-08T06:00:03;42.93;;;25.20;;
10232;SDS011;5161;48.174;11.756;2024-03-08T06:02:29;42.73;;;26.10;;
10232;SDS011;5161;48.174;11.756;2024-03-08T06:04:54;41.77;;;25.13;;
10232;SDS011;5161;48.174;11.756;2024-03-08T06:07:20;43.80;;;25.03;;
10232;SDS011;5161;48.174;11.756;2024-03-08T06:09:46;40.83;;;25.17;;
10232;SDS011;5161;48.174;11.756;2024-03-08T06:12:11;42.03;;;26.03;;
10232;SDS011;5161;48.174;11.756;2024-03-08T06:14:37;44.70;;;25.70;;
10232;SDS011;5161;48.174;11.756;2024-03-08T06:17:03;43.10;;;25.47;;
10232;SDS011;5161;48.174;11.756;2024-03-08T06:19:32;43.67;;;26.07;;
10232;SDS011;5161;48.174;11.756;2024-03-08T06:21:57;42.73;;;26.33;;
10232;SDS011;5161;48.174;11.756;2024-03-08T06:24:23;40.50;;;25.07;;
10232;SDS011;5161;48.174;11.756;2024-03-08T06:26:49;43.17;;;26.30;;
10232;SDS011;5161;48.174;11.756;2024-03-08T06:29:14;40.47;;;24.80;;
10232;SDS011;5161;48.174;11.756;2024-03-08T06:31:40;40.70;;;24.83;;
10232;SDS011;5161;48.174;11.756;2024-03-08T06:34:06;47.27;;;25.10;;
10232;SDS011;5161;48.174;11.756;2024-03-08T06:36:33;42.37;;;26.10;;
10232;SDS011;5161;48.174;11.756;2024-03-08T06:38:58;42.37;;;25.77;;
10232;SDS011;5161;48.174;11.756;2024-03-08T06:41:24;47.00;;;26.67;;
10232;SDS011;5161;48.174;11.756;2024-03-08T06:43:49;43.90;;;25.63;;
10232;SDS011;5161;48.174;11.756;2024-03-08T06:46:17;44.53;;;26.53;;
10232;SDS011;5161;48.174;11.756;2024-03-08T06:48:43;46.57;;;26.87;;
10232;SDS011;5161;48.174;11.756;2024-03-08T06:51:10;45.67;;;25.57;;
10232;SDS011;5161;48.174;11.756;2024-03-08T06:53:36;43.10;;;26.83;;
10232;SDS011;5161;48.174;11.756;2024-03-08T06:56:03;42.13;;;25.07;;
10232;SDS011;5161;48.174;11.756;2024-03-08T06:58:29;43.97;;;25.57;;
10232;SDS011;5161;48.174;11.756;2024-03-08T07:00:54;44.40;;;26.80;;
10232;SDS011;5161;48.174;11.756;2024-03-08T07:03:23;43.23;;;24.87;;
10232;SDS011;5161;48.174;11.756;2024-03-08T07:05:49;43.63;;;26.27;;
10232;SDS011;5161;48.174;11.756;2024-03-08T07:08:14;41.87;;;26.03;;
10232;SDS011;5161;48.174;11.756;2024-03-08T07:10:41;40.83;;;25.30;;
10232;SDS011;5161;48.174;11.756;2024-03-08T07:13:07;42.57;;;25.47;;
10232;SDS011;5161;48.174;11.756;2024-03-08T07:15:33;40.33;;;23.87;;
10232;SDS011;5161;48.174;11.756;2024-03-08T07:18:00;39.57;;;24.53;;
10232;SDS011;5161;48.174;11.756;2024-03-08T07:20:26;40.97;;;24.70;;
10232;SDS011;5161;48.174;11.756;2024-03-08T07:22:51;39.43;;;25.13;;
10232;SDS011;5161;48.174;11.756;2024-03-08T07:25:17;42.20;;;25.20;;
10232;SDS011;5161;48.174;11.756;2024-03-08T07:27:49;40.10;;;25.13;;
10232;SDS011;5161;48.174;11.756;2024-03-08T07:30:19;41.17;;;24.30;;
10232;SDS011;5161;48.174;11.756;2024-03-08T07:33:07;36.80;;;23.27;;
10232;SDS011;5161;48.174;11.756;2024-03-08T07:35:36;40.33;;;23.77;;
10232;SDS011;5161;48.174;11.756;2024-03-08T07:38:11;37.80;;;23.47;;
10232;SDS011;5161;48.174;11.756;2024-03-08T07:40:38;41.03;;;24.90;;
10232;SDS011;5161;48.174;11.756;2024-03-08T07:43:06;35.63;;;22.43;;
10232;SDS011;5161;48.174;11.756;2024-03-08T07:45:32;39.13;;;23.13;;
10232;SDS011;5161;48.174;11.756;2024-03-08T07:47:57;38.17;;;22.80;;
10232;SDS011;5161;48.174;11.756;2024-03-08T07:50:23;37.10;;;23.00;;
10232;SDS011;5161;48.174;11.756;2024-03-08T07:52:49;35.93;;;22.60;;
10232;SDS011;5161;48.174;11.756;2024-03-08T07:55:14;37.00;;;22.67;;
10232;SDS011;5161;48.174;11.756;2024-03-08T07:57:40;37.73;;;22.50;;
10232;SDS011;5161;48.174;11.756;2024-03-08T08:00:07;33.90;;;22.70;;
10232;SDS011;5161;48.174;11.756;2024-03-08T08:02:34;37.17;;;22.77;;
10232;SDS011;5161;48.174;11.756;2024-03-08T08:05:00;35.17;;;21.63;;
10232;SDS011;5161;48.174;11.756;2024-03-08T08:07:26;36.00;;;21.83;;
10232;SDS011;5161;48.174;11.756;2024-03-08T08:09:52;36.37;;;21.73;;
10232;SDS011;5161;48.174;11.756;2024-03-08T08:12:18;34.40;;;22.23;;
10232;SDS011;5161;48.174;11.756;2024-03-08T08:14:44;37.17;;;22.23;;
10232;SDS011;5161;48.174;11.756;2024-03-08T08:17:09;36.77;;;22.97;;
10232;SDS011;5161;48.174;11.756;2024-03-08T08:19:35;38.63;;;22.37;;
10232;SDS011;5161;48.174;11.756;2024-03-08T08:22:03;34.33;;;22.73;;
10232;SDS011;5161;48.174;11.756;2024-03-08T08:24:29;35.27;;;22.90;;
10232;SDS011;5161;48.174;11.756;2024-03-08T08:26:54;37.63;;;23.40;;
10232;SDS011;5161;48.174;11.756;2024-03-08T08:29:20;37.13;;;21.93;;
10232;SDS011;5161;48.174;11.756;2024-03-08T08:31:47;36.33;;;23.70;;
10232;SDS011;5161;48.174;11.756;2024-03-08T08:34:12;41.07;;;23.73;;
10232;SDS011;5161;48.174;11.756;2024-03-08T08:36:38;37.60;;;22.90;;
10232;SDS011;5161;48.174;11.756;2024-03-08T08:39:04;36.10;;;22.40;;
10232;SDS011;5161;48.174;11.756;2024-03-08T08:41:37;33.87;;;21.37;;
10232;SDS011;5161;48.174;11.756;2024-03-08T08:44:03;35.47;;;22.47;;
10232;SDS011;5161;48.174;11.756;2024-03-08T08:46:28;35.20;;;21.97;;
10232;SDS011;5161;48.174;11.756;2024-03-08T08:48:54;35.23;;;22.30;;
10232;SDS011;5161;48.174;11.756;2024-03-08T08:51:20;36.00;;;23.07;;
10232;SDS011;5161;48.174;11.756;2024-03-08T08:53:45;37.87;;;23.33;;
10232;SDS011;5161;48.174;11.756;2024-03-08T08:56:12;35.20;;;23.17;;
10232;SDS011;5161;48.174;11.756;2024-03-08T08:58:42;37.97;;;22.93;;
10232;SDS011;5161;48.174;11.756;2024-03-08T09:01:08;38.20;;;22.97;;
10232;SDS011;5161;48.174;11.756;2024-03-08T09:03:35;36.53;;;23.57;;
10232;SDS011;5161;48.174;11.756;2024-03-08T09:06:05;36.87;;;22.80;;
10232;SDS011;5161;48.174;11.756;2024-03-08T09:08:35;32.77;;;22.27;;
10232;SDS011;5161;48.174;11.756;2024-03-08T09:11:02;34.77;;;22.93;;
10232;SDS011;5161;48.174;11.756;2024-03-08T09:13:27;35.60;;;22.50;;
10232;SDS011;5161;48.174;11.756;2024-03-08T09:15:53;36.23;;;22.93;;
10232;SDS011;5161;48.174;11.756;2024-03-08T09:18:18;31.87;;;21.10;;
10232;SDS011;5161;48.174;11.756;2024-03-08T09:20:44;35.00;;;21.80;;
10232;SDS011;5161;48.174;11.756;2024-03-08T09:23:10;35.33;;;23.07;;
10232;SDS011;5161;48.174;11.756;2024-03-08T09:25:36;31.83;;;21.37;;
10232;SDS011;5161;48.174;11.756;2024-03-08T09:28:01;31.23;;;21.27;;
10232;SDS011;5161;48.174;11.756;2024-03-08T09:30:27;33.60;;;21.63;;
10232;SDS011;5161;48.174;11.756;2024-03-08T09:32:53;32.53;;;21.27;;
10232;SDS011;5161;48.174;11.756;2024-03-08T09:35:19;30.93;;;20.97;;
10232;SDS011;5161;48.174;11.756;2024-03-08T09:37:44;29.40;;;20.23;;
10232;SDS011;5161;48.174;11.756;2024-03-08T09:40:12;33.50;;;21.30;;
10232;SDS011;5161;48.174;11.756;2024-03-08T09:42:40;34.73;;;21.60;;
10232;SDS011;5161;48.174;11.756;2024-03-08T09:45:10;29.57;;;20.40;;
10232;SDS011;5161;48.174;11.756;2024-03-08T09:47:38;33.37;;;20.57;;
10232;SDS011;5161;48.174;11.756;2024-03-08T09:50:06;30.67;;;19.57;;
10232;SDS011;5161;48.174;11.756;2024-03-08T09:52:37;31.10;;;20.70;;
10232;SDS011;5161;48.174;11.756;2024-03-08T09:55:05;27.63;;;18.70;;
10232;SDS011;5161;48.174;11.756;2024-03-08T09:57:32;27.93;;;19.07;;
10232;SDS011;5161;48.174;11.756;2024-03-08T09:59:58;27.83;;;19.53;;
10232;SDS011;5161;48.174;11.756;2024-03-08T10:02:24;31.37;;;20.13;;
10232;SDS011;5161;48.174;11.756;2024-03-08T10:04:50;29.53;;;19.63;;
10232;SDS011;5161;48.174;11.756;2024-03-08T10:07:18;27.63;;;19.07;;
10232;SDS011;5161;48.174;11.756;2024-03-08T10:09:43;28.83;;;20.03;;
10232;SDS011;5161;48.174;11.756;2024-03-08T10:12:15;28.43;;;19.43;;
10232;SDS011;5161;48.174;11.756;2024-03-08T10:14:44;29.17;;;18.83;;
10232;SDS011;5161;48.174;11.756;2024-03-08T10:17:11;30.27;;;19.43;;
10232;SDS011;5161;48.174;11.756;2024-03-08T10:19:37;27.33;;;18.60;;
10232;SDS011;5161;48.174;11.756;2024-03-08T10:22:03;25.20;;;18.40;;
10232;SDS011;5161;48.174;11.756;2024-03-08T10:24:30;28.33;;;17.70;;
10232;SDS011;5161;48.174;11.756;2024-03-08T10:26:59;27.13;;;18.93;;
10232;SDS011;5161;48.174;11.756;2024-03-08T10:29:26;26.60;;;18.60;;
10232;SDS011;5161;48.174;11.756;2024-03-08T10:31:53;26.17;;;18.70;;
10232;SDS011;5161;48.174;11.756;2024-03-08T10:34:21;24.77;;;17.47;;
10232;SDS011;5161;48.174;11.756;2024-03-08T10:36:48;26.00;;;18.10;;
10232;SDS011;5161;48.174;11.756;2024-03-08T10:39:25;27.43;;;18.23;;
10232;SDS011;5161;48.174;11.756;2024-03-08T10:41:52;24.87;;;17.63;;
10232;SDS011;5161;48.174;11.756;2024-03-08T10:49:38;25.23;;;18.50;;
10232;SDS011;5161;48.174;11.756;2024-03-08T10:52:08;25.67;;;17.70;;
10232;SDS011;5161;48.174;11.756;2024-03-08T10:54:36;24.63;;;17.90;;
10232;SDS011;5161;48.174;11.756;2024-03-08T10:57:05;23.57;;;16.87;;
10232;SDS011;5161;48.174;11.756;2024-03-08T10:59:33;25.83;;;17.30;;
10232;SDS011;5161;48.174;11.756;2024-03-08T11:02:00;24.20;;;17.40;;
10232;SDS011;5161;48.174;11.756;2024-03-08T11:04:26;24.70;;;16.93;;
10232;SDS011;5161;48.174;11.756;2024-03-08T11:06:54;21.90;;;15.60;;
10232;SDS011;5161;48.174;11.756;2024-03-08T11:09:31;23.07;;;16.40;;
10232;SDS011;5161;48.174;11.756;2024-03-08T11:15:02;24.33;;;16.13;;
10232;SDS011;5161;48.174;11.756;2024-03-08T11:20:04;23.37;;;16.43;;
10232;SDS011;5161;48.174;11.756;2024-03-08T11:22:48;21.80;;;16.03;;
10232;SDS011;5161;48.174;11.756;2024-03-08T11:25:35;21.97;;;15.53;;
10232;SDS011;5161;48.174;11.756;2024-03-08T11:28:11;21.60;;;16.40;;
10232;SDS011;5161;48.174;11.756;2024-03-08T11:33:14;22.60;;;16.13;;
10232;SDS011;5161;48.174;11.756;2024-03-08T11:35:41;24.13;;;16.53;;
10232;SDS011;5161;48.174;11.756;2024-03-08T11:38:08;22.27;;;16.33;;
10232;SDS011;5161;48.174;11.756;2024-03-08T11:40:34;24.77;;;16.63;;
10232;SDS011;5161;48.174;11.756;2024-03-08T11:43:01;21.60;;;16.73;;
10232;SDS011;5161;48.174;11.756;2024-03-08T11:45:32;23.03;;;17.17;;
10232;SDS011;5161;48.174;11.756;2024-03-08T11:48:01;23.10;;;16.97;;
10232;SDS011;5161;48.174;11.756;2024-03-08T11:50:29;23.40;;;17.10;;
10232;SDS011;5161;48.174;11.756;2024-03-08T11:53:00;21.83;;;16.70;;
10232;SDS011;5161;48.174;11.756;2024-03-08T11:55:27;19.23;;;15.33;;
10232;SDS011;5161;48.174;11.756;2024-03-08T11:58:03;22.17;;;16.23;;
10232;SDS011;5161;48.174;11.756;2024-03-08T12:00:30;20.53;;;15.47;;
10232;SDS011;5161;48.174;11.756;2024-03-08T12:03:06;22.23;;;16.23;;
10232;SDS011;5161;48.174;11.756;2024-03-08T12:05:34;22.07;;;15.40;;
10232;SDS011;5161;48.174;11.756;2024-03-08T12:08:00;23.30;;;16.00;;
10232;SDS011;5161;48.174;11.756;2024-03-08T12:10:27;23.50;;;15.70;;
10232;SDS011;5161;48.174;11.756;2024-03-08T12:12:54;20.70;;;15.90;;
10232;SDS011;5161;48.174;11.756;2024-03-08T12:15:24;20.33;;;15.43;;
10232;SDS011;5161;48.174;11.756;2024-03-08T12:17:51;19.47;;;14.97;;
10232;SDS011;5161;48.174;11.756;2024-03-08T12:20:21;22.77;;;15.30;;
10232;SDS011;5161;48.174;11.756;2024-03-08T12:22:48;19.47;;;15.63;;
10232;SDS011;5161;48.174;11.756;2024-03-08T12:25:17;19.97;;;15.03;;
10232;SDS011;5161;48.174;11.756;2024-03-08T12:27:43;21.10;;;15.00;;
10232;SDS011;5161;48.174;11.756;2024-03-08T12:30:18;23.27;;;15.47;;
10232;SDS011;5161;48.174;11.756;2024-03-08T12:32:58;19.70;;;15.33;;
10232;SDS011;5161;48.174;11.756;2024-03-08T12:35:25;19.03;;;14.33;;
10232;SDS011;5161;48.174;11.756;2024-03-08T12:37:53;19.77;;;15.63;;
10232;SDS011;5161;48.174;11.756;2024-03-08T12:40:26;22.33;;;15.50;;
10232;SDS011;5161;48.174;11.756;2024-03-08T12:42:53;19.67;;;14.70;;
10232;SDS011;5161;48.174;11.756;2024-03-08T12:45:20;20.27;;;14.53;;
10232;SDS011;5161;48.174;11.756;2024-03-08T12:47:48;18.13;;;14.70;;
10232;SDS011;5161;48.174;11.756;2024-03-08T12:50:18;19.13;;;15.50;;
10232;SDS011;5161;48.174;11.756;2024-03-08T12:52:47;20.20;;;14.90;;
10232;SDS011;5161;48.174;11.756;2024-03-08T12:55:17;18.53;;;15.20;;
10232;SDS011;5161;48.174;11.756;2024-03-08T12:57:43;19.40;;;16.30;;
10232;SDS011;5161;48.174;11.756;2024-03-08T13:00:10;20.37;;;15.77;;
10232;SDS011;5161;48.174;11.756;2024-03-08T13:02:43;19.87;;;16.13;;
10232;SDS011;5161;48.174;11.756;2024-03-08T13:05:10;19.03;;;15.20;;
10232;SDS011;5161;48.174;11.756;2024-03-08T13:07:35;20.53;;;15.27;;
10232;SDS011;5161;48.174;11.756;2024-03-08T13:10:02;17.97;;;14.10;;
10232;SDS011;5161;48.174;11.756;2024-03-08T13:12:29;17.90;;;14.20;;
10232;SDS011;5161;48.174;11.756;2024-03-08T13:14:55;17.47;;;13.83;;
10232;SDS011;5161;48.174;11.756;2024-03-08T13:17:21;20.53;;;14.73;;
10232;SDS011;5161;48.174;11.756;2024-03-08T13:19:47;18.70;;;14.77;;
10232;SDS011;5161;48.174;11.756;2024-03-08T13:22:13;19.83;;;15.83;;
10232;SDS011;5161;48.174;11.756;2024-03-08T13:24:41;18.50;;;13.70;;
10232;SDS011;5161;48.174;11.756;2024-03-08T13:27:08;17.20;;;13.80;;
10232;SDS011;5161;48.174;11.756;2024-03-08T13:29:47;18.40;;;15.03;;
10232;SDS011;5161;48.174;11.756;2024-03-08T13:32:14;18.13;;;15.33;;
10232;SDS011;5161;48.174;11.756;2024-03-08T13:34:45;24.40;;;15.93;;
10232;SDS011;5161;48.174;11.756;2024-03-08T13:37:12;21.40;;;15.27;;
10232;SDS011;5161;48.174;11.756;2024-03-08T13:39:40;19.60;;;16.10;;
10232;SDS011;5161;48.174;11.756;2024-03-08T13:42:09;20.67;;;16.17;;
10232;SDS011;5161;48.174;11.756;2024-03-08T13:44:37;18.33;;;15.17;;
10232;SDS011;5161;48.174;11.756;2024-03-08T13:47:11;17.43;;;14.70;;
10232;SDS011;5161;48.174;11.756;2024-03-08T13:49:40;16.60;;;13.77;;
10232;SDS011;5161;48.174;11.756;2024-03-08T13:52:05;18.83;;;15.40;;
10232;SDS011;5161;48.174;11.756;2024-03-08T13:54:33;19.40;;;15.67;;
10232;SDS011;5161;48.174;11.756;2024-03-08T13:57:00;20.97;;;16.07;;
10232;SDS011;5161;48.174;11.756;2024-03-08T13:59:25;18.77;;;15.50;;
10232;SDS011;5161;48.174;11.756;2024-03-08T14:01:54;18.60;;;15.63;;
10232;SDS011;5161;48.174;11.756;2024-03-08T14:04:20;21.87;;;14.57;;
10232;SDS011;5161;48.174;11.756;2024-03-08T14:06:46;16.97;;;14.97;;
10232;SDS011;5161;48.174;11.756;2024-03-08T14:09:12;19.30;;;14.57;;
10232;SDS011;5161;48.174;11.756;2024-03-08T14:11:42;18.73;;;14.30;;
10232;SDS011;5161;48.174;11.756;2024-03-08T14:14:09;18.37;;;14.03;;
10232;SDS011;5161;48.174;11.756;2024-03-08T14:16:36;18.57;;;14.53;;
10232;SDS011;5161;48.174;11.756;2024-03-08T14:19:02;18.80;;;15.20;;
10232;SDS011;5161;48.174;11.756;2024-03-08T14:21:30;17.97;;;13.80;;
10232;SDS011;5161;48.174;11.756;2024-03-08T14:23:56;17.53;;;14.27;;
10232;SDS011;5161;48.174;11.756;2024-03-08T14:26:22;19.10;;;14.93;;
10232;SDS011;5161;48.174;11.756;2024-03-08T14:28:48;16.67;;;14.67;;
10232;SDS011;5161;48.174;11.756;2024-03-08T14:31:16;16.43;;;14.60;;
10232;SDS011;5161;48.174;11.756;2024-03-08T14:33:44;19.37;;;15.73;;